createdAt,value
2019-04-10T00:01:20.564Z,2.20
2019-04-10T00:03:48.322Z,2.20
2019-04-10T00:06:18.088Z,2.20
2019-04-10T00:08:44.828Z,2.20
2019-04-10T00:11:12.312Z,2.20
2019-04-10T00:13:39.708Z,2.20
2019-04-10T00:16:07.647Z,2.20
2019-04-10T00:18:35.365Z,2.20
2019-04-10T00:21:02.938Z,2.20
2019-04-10T00:23:31.093Z,2.20
2019-04-10T00:25:59.335Z,2.20
2019-04-10T00:28:27.547Z,2.20
2019-04-10T00:30:55.659Z,2.20
2019-04-10T00:33:22.977Z,2.20
2019-04-10T00:35:50.236Z,2.20
2019-04-10T00:38:17.709Z,2.20
2019-04-10T00:40:45.811Z,2.20
2019-04-10T00:43:13.028Z,2.20
2019-04-10T00:45:40.380Z,2.20
2019-04-10T00:48:07.886Z,2.10
2019-04-10T00:50:35.620Z,2.10
2019-04-10T00:53:02.999Z,2.10
2019-04-10T00:55:30.323Z,2.00
2019-04-10T00:57:58.157Z,2.00
2019-04-10T01:00:25.575Z,2.00
2019-04-10T01:02:53.335Z,2.00
2019-04-10T01:05:20.801Z,1.90
2019-04-10T01:07:48.592Z,1.90
2019-04-10T01:10:16.085Z,1.90
2019-04-10T01:12:44.007Z,2.00
2019-04-10T01:15:12.065Z,2.00
2019-04-10T01:17:40.251Z,2.10
2019-04-10T01:20:07.815Z,2.10
2019-04-10T01:22:35.111Z,2.20
2019-04-10T01:25:02.361Z,2.20
2019-04-10T01:27:29.608Z,2.20
2019-04-10T01:29:57.869Z,2.20
2019-04-10T01:32:25.822Z,2.20
2019-04-10T01:34:53.911Z,2.20
2019-04-10T01:37:21.253Z,2.30
2019-04-10T01:39:48.652Z,2.30
2019-04-10T01:42:16.567Z,2.50
2019-04-10T01:44:44.832Z,2.40
2019-04-10T01:47:13.032Z,2.50
2019-04-10T01:49:40.521Z,2.50
2019-04-10T01:52:07.628Z,2.80
2019-04-10T01:54:35.339Z,2.70
2019-04-10T01:57:02.727Z,2.70
2019-04-10T01:59:32.133Z,2.80
2019-04-10T02:02:28.168Z,2.90
2019-04-10T02:04:56.674Z,3.00
2019-04-10T02:07:24.462Z,3.10
2019-04-10T02:09:51.972Z,3.10
2019-04-10T02:12:19.247Z,3.20
2019-04-10T02:14:46.831Z,3.20
2019-04-10T02:17:14.733Z,3.20
2019-04-10T02:19:42.673Z,3.30
2019-04-10T02:22:10.001Z,3.30
2019-04-10T02:24:37.628Z,3.40
2019-04-10T02:27:05.757Z,3.40
2019-04-10T02:29:33.584Z,3.40
2019-04-10T02:32:02.123Z,3.40
2019-04-10T02:34:30.676Z,3.40
2019-04-10T02:36:58.611Z,3.50
2019-04-10T02:39:35.151Z,3.50
2019-04-10T02:41:56.205Z,3.50
2019-04-10T02:44:26.000Z,3.50
2019-04-10T02:46:54.884Z,3.50
2019-04-10T02:49:22.502Z,3.60
2019-04-10T02:51:51.796Z,3.60
2019-04-10T02:54:19.497Z,3.60
2019-04-10T02:56:47.933Z,3.70
2019-04-10T02:59:15.956Z,3.60
2019-04-10T03:01:44.032Z,3.60
2019-04-10T03:04:13.244Z,3.70
2019-04-10T03:06:40.553Z,3.70
2019-04-10T03:09:26.071Z,3.70
2019-04-10T03:11:37.010Z,3.70
2019-04-10T03:14:04.968Z,3.70
2019-04-10T03:16:32.262Z,3.70
2019-04-10T03:18:59.483Z,3.70
2019-04-10T03:21:27.020Z,3.70
2019-04-10T03:23:54.569Z,3.70
2019-04-10T03:26:21.731Z,3.70
2019-04-10T03:28:49.381Z,3.70
2019-04-10T03:31:16.681Z,3.70
2019-04-10T03:34:05.976Z,3.70
2019-04-10T03:36:37.926Z,3.70
2019-04-10T03:39:07.944Z,3.70
2019-04-10T03:41:36.636Z,3.70
2019-04-10T03:44:04.265Z,3.70
2019-04-10T03:46:31.484Z,3.70
2019-04-10T03:48:58.761Z,3.70
2019-04-10T03:51:25.988Z,3.70
2019-04-10T03:53:54.214Z,3.70
2019-04-10T03:56:21.556Z,3.70
2019-04-10T03:58:49.547Z,3.80
2019-04-10T04:01:16.930Z,3.70
2019-04-10T04:03:44.734Z,3.70
2019-04-10T04:06:12.166Z,3.60
2019-04-10T04:08:39.510Z,3.60
2019-04-10T04:11:07.185Z,3.60
2019-04-10T04:13:35.459Z,3.60
2019-04-10T04:16:02.819Z,3.50
2019-04-10T04:18:30.042Z,3.50
2019-04-10T04:20:57.284Z,3.50
2019-04-10T04:23:25.654Z,3.50
2019-04-10T04:25:52.997Z,3.50
2019-04-10T04:28:20.180Z,3.50
2019-04-10T04:30:47.432Z,3.50
2019-04-10T04:33:15.466Z,3.50
2019-04-10T04:35:42.893Z,3.40
2019-04-10T04:38:11.295Z,3.40
2019-04-10T04:40:38.902Z,3.40
2019-04-10T04:43:06.484Z,3.30
2019-04-10T04:45:33.785Z,3.30
2019-04-10T04:48:01.833Z,3.30
2019-04-10T04:50:29.289Z,3.30
2019-04-10T04:52:56.929Z,3.30
2019-04-10T04:55:24.203Z,3.20
2019-04-10T04:57:51.403Z,3.20
2019-04-10T05:00:18.849Z,3.20
2019-04-10T05:02:46.938Z,3.20
2019-04-10T05:05:14.344Z,3.20
2019-04-10T05:07:41.793Z,3.30
2019-04-10T05:10:09.642Z,3.30
2019-04-10T05:12:38.026Z,3.30
2019-04-10T05:15:06.569Z,3.30
2019-04-10T05:17:35.150Z,3.30
2019-04-10T05:20:03.017Z,3.40
2019-04-10T05:22:31.611Z,3.50
2019-04-10T05:24:59.057Z,3.60
2019-04-10T05:27:26.669Z,3.60
2019-04-10T05:29:54.022Z,3.70
2019-04-10T05:32:21.577Z,3.80
2019-04-10T05:34:48.830Z,3.80
2019-04-10T05:37:16.125Z,4.00
2019-04-10T05:39:49.154Z,4.10
2019-04-10T05:42:12.778Z,4.20
2019-04-10T05:44:40.234Z,4.20
2019-04-10T05:47:07.585Z,4.30
2019-04-10T05:49:35.168Z,4.40
2019-04-10T05:52:02.273Z,4.50
2019-04-10T05:54:29.448Z,4.60
2019-04-10T05:56:56.909Z,4.80
2019-04-10T05:59:24.288Z,4.90
2019-04-10T06:01:52.618Z,5.20
2019-04-10T06:04:20.871Z,5.30
2019-04-10T06:06:48.545Z,5.70
2019-04-10T06:09:16.332Z,6.00
2019-04-10T06:11:44.547Z,6.40
2019-04-10T06:14:13.561Z,6.80
2019-04-10T06:16:40.877Z,7.50
2019-04-10T06:19:09.411Z,7.60
2019-04-10T06:21:37.608Z,7.90
2019-04-10T06:24:05.848Z,8.00
2019-04-10T06:26:33.109Z,7.90
2019-04-10T06:29:00.369Z,7.80
2019-04-10T06:31:28.495Z,7.70
2019-04-10T06:33:56.298Z,7.80
2019-04-10T06:36:23.577Z,7.80
2019-04-10T06:38:51.196Z,7.80
2019-04-10T06:41:19.225Z,7.70
2019-04-10T06:43:47.467Z,7.70
2019-04-10T06:46:14.763Z,7.60
2019-04-10T06:48:42.426Z,7.70
2019-04-10T06:51:10.222Z,7.70
2019-04-10T06:53:37.468Z,7.60
2019-04-10T06:56:04.894Z,7.50
2019-04-10T06:58:32.072Z,7.60
2019-04-10T07:01:01.501Z,7.60
2019-04-10T07:03:44.854Z,7.60
2019-04-10T07:06:07.209Z,7.80
2019-04-10T07:08:27.521Z,7.90
2019-04-10T07:11:03.373Z,8.10
2019-04-10T07:13:23.974Z,8.20
2019-04-10T07:15:54.446Z,8.30
2019-04-10T07:18:21.912Z,8.40
2019-04-10T07:20:50.358Z,8.50
2019-04-10T07:23:22.400Z,8.60
2019-04-10T07:25:48.328Z,8.70
2019-04-10T07:28:17.386Z,8.70
2019-04-10T07:30:45.685Z,8.70
2019-04-10T07:33:16.546Z,8.70
2019-04-10T07:35:42.321Z,8.60
2019-04-10T07:38:09.751Z,8.70
2019-04-10T07:40:37.011Z,8.70
2019-04-10T07:43:04.651Z,8.80
2019-04-10T07:45:31.886Z,8.80
2019-04-10T07:48:00.331Z,8.80
2019-04-10T07:50:28.183Z,8.80
2019-04-10T07:52:55.649Z,8.80
2019-04-10T07:55:23.888Z,8.70
2019-04-10T07:57:51.765Z,8.50
2019-04-10T08:00:20.119Z,8.40
2019-04-10T08:02:47.479Z,8.30
2019-04-10T08:05:14.720Z,8.20
2019-04-10T08:07:42.965Z,8.20
2019-04-10T08:10:10.337Z,8.20
2019-04-10T08:12:45.473Z,8.10
2019-04-10T08:15:07.028Z,8.10
2019-04-10T08:17:34.575Z,8.10
2019-04-10T08:20:02.199Z,8.10
2019-04-10T08:22:29.455Z,8.10
2019-04-10T08:24:56.708Z,8.00
2019-04-10T08:27:23.970Z,8.20
2019-04-10T08:29:51.204Z,8.10
2019-04-10T08:32:19.046Z,8.10
2019-04-10T08:34:47.121Z,8.10
2019-04-10T08:37:14.538Z,8.20
2019-04-10T08:39:46.001Z,8.20
2019-04-10T08:42:11.141Z,8.30
2019-04-10T08:44:38.412Z,8.40
2019-04-10T08:47:06.718Z,8.50
2019-04-10T08:49:33.845Z,8.60
2019-04-10T08:52:01.130Z,8.50
2019-04-10T08:54:28.371Z,8.60
2019-04-10T08:56:56.794Z,8.70
2019-04-10T08:59:24.097Z,8.80
2019-04-10T09:01:51.220Z,8.80
2019-04-10T09:04:18.939Z,8.90
2019-04-10T09:06:47.294Z,8.90
2019-04-10T09:09:15.307Z,8.90
2019-04-10T09:11:43.051Z,8.90
2019-04-10T09:14:10.704Z,9.00
2019-04-10T09:16:38.562Z,9.10
2019-04-10T09:19:05.892Z,9.10
2019-04-10T09:21:33.149Z,9.10
2019-04-10T09:24:00.718Z,9.30
2019-04-10T09:26:28.619Z,9.30
2019-04-10T09:28:57.076Z,9.30
2019-04-10T09:31:25.912Z,9.40
2019-04-10T09:33:53.721Z,9.40
2019-04-10T09:36:21.528Z,9.50
2019-04-10T09:38:48.765Z,9.50
2019-04-10T09:41:16.075Z,9.50
2019-04-10T09:43:43.247Z,9.60
2019-04-10T09:46:12.761Z,9.70
2019-04-10T09:48:40.127Z,9.70
2019-04-10T09:51:07.639Z,9.70
2019-04-10T09:53:35.199Z,9.70
2019-04-10T09:56:03.197Z,9.70
2019-04-10T09:58:30.355Z,9.80
2019-04-10T10:01:01.456Z,9.90
2019-04-10T10:03:28.861Z,9.80
2019-04-10T10:05:57.113Z,9.80
2019-04-10T10:08:24.855Z,9.90
2019-04-10T10:10:52.054Z,9.90
2019-04-10T10:13:19.527Z,9.90
2019-04-10T10:15:46.804Z,9.90
2019-04-10T10:18:14.096Z,10.00
2019-04-10T10:20:41.388Z,10.10
2019-04-10T10:23:09.532Z,10.10
2019-04-10T10:25:37.489Z,10.10
2019-04-10T10:28:05.003Z,10.10
2019-04-10T10:30:33.600Z,10.20
2019-04-10T10:33:01.463Z,10.10
2019-04-10T10:35:29.342Z,10.20
2019-04-10T10:37:56.863Z,10.20
2019-04-10T10:40:24.243Z,10.20
2019-04-10T10:42:52.039Z,10.30
2019-04-10T10:45:20.714Z,10.30
2019-04-10T10:47:48.604Z,10.40
2019-04-10T10:50:17.110Z,10.50
2019-04-10T10:52:44.403Z,10.50
2019-04-10T10:55:11.792Z,10.50
2019-04-10T10:57:39.609Z,10.50
2019-04-10T11:00:08.313Z,10.60
2019-04-10T11:02:37.845Z,10.70
2019-04-10T11:05:07.095Z,10.60
2019-04-10T11:07:35.265Z,10.70
2019-04-10T11:10:04.255Z,10.70
2019-04-10T11:12:31.473Z,10.80
2019-04-10T11:14:59.442Z,10.80
2019-04-10T11:17:28.182Z,10.90
2019-04-10T11:19:55.974Z,10.90
2019-04-10T11:22:25.672Z,10.80
2019-04-10T11:24:53.343Z,10.90
2019-04-10T11:27:20.723Z,10.90
2019-04-10T11:29:48.031Z,11.00
2019-04-10T11:32:15.253Z,11.00
2019-04-10T11:34:44.377Z,10.90
2019-04-10T11:37:23.459Z,10.90
2019-04-10T11:39:43.454Z,11.00
2019-04-10T11:42:10.165Z,11.00
2019-04-10T11:44:39.599Z,11.10
2019-04-10T11:47:09.527Z,11.20
2019-04-10T11:49:36.833Z,11.20
2019-04-10T11:52:06.270Z,11.30
2019-04-10T11:54:37.236Z,11.30
2019-04-10T11:57:04.294Z,11.30
2019-04-10T11:59:34.181Z,11.30
2019-04-10T12:04:36.041Z,11.40
2019-04-10T12:07:01.511Z,11.30
2019-04-10T12:11:57.358Z,11.30
2019-04-10T12:14:25.606Z,11.40
2019-04-10T12:16:53.577Z,11.30
2019-04-10T12:19:23.556Z,11.40
2019-04-10T12:21:50.370Z,11.40
2019-04-10T12:24:18.283Z,11.40
2019-04-10T12:26:46.388Z,11.40
2019-04-10T12:29:14.119Z,11.50
2019-04-10T12:31:41.939Z,11.40
2019-04-10T12:34:09.260Z,11.40
2019-04-10T12:36:36.792Z,11.40
2019-04-10T12:39:07.828Z,11.40
2019-04-10T12:41:35.274Z,11.40
2019-04-10T12:44:03.288Z,11.50
2019-04-10T12:46:30.380Z,11.60
2019-04-10T12:49:00.876Z,11.60
2019-04-10T12:51:27.936Z,11.60
2019-04-10T12:53:56.145Z,11.60
2019-04-10T12:56:24.094Z,11.70
2019-04-10T12:58:52.966Z,11.70
2019-04-10T13:01:20.537Z,11.70
2019-04-10T13:03:48.007Z,11.70
2019-04-10T13:06:15.772Z,11.70
2019-04-10T13:08:55.694Z,11.70
2019-04-10T13:11:12.325Z,11.70
2019-04-10T13:13:39.582Z,11.70
2019-04-10T13:16:07.806Z,11.60
2019-04-10T13:18:35.045Z,11.60
2019-04-10T13:21:04.212Z,11.70
2019-04-10T13:23:31.436Z,11.70
2019-04-10T13:26:01.753Z,11.70
2019-04-10T13:28:29.662Z,11.80
2019-04-10T13:30:58.446Z,11.80
2019-04-10T13:33:26.732Z,11.90
2019-04-10T13:35:54.037Z,12.10
2019-04-10T13:38:27.682Z,11.90
2019-04-10T13:40:50.563Z,12.00
2019-04-10T13:43:18.046Z,12.00
2019-04-10T13:45:45.810Z,12.00
2019-04-10T13:48:14.481Z,12.10
2019-04-10T13:50:43.108Z,12.10
2019-04-10T13:53:10.460Z,12.00
2019-04-10T13:55:38.200Z,12.00
2019-04-10T13:58:06.643Z,11.90
2019-04-10T14:00:39.962Z,11.70
2019-04-10T14:03:07.334Z,11.80
2019-04-10T14:05:34.764Z,11.80
2019-04-10T14:08:02.252Z,11.80
2019-04-10T14:10:29.551Z,11.80
2019-04-10T14:12:57.973Z,11.80
2019-04-10T14:15:27.222Z,11.80
2019-04-10T14:17:54.770Z,11.80
2019-04-10T14:20:22.167Z,11.80
2019-04-10T14:22:55.697Z,11.80
2019-04-10T14:25:30.292Z,11.80
2019-04-10T14:27:57.848Z,11.80
2019-04-10T14:30:33.466Z,11.70
2019-04-10T14:33:00.917Z,11.80
2019-04-10T14:35:29.484Z,11.70
2019-04-10T14:37:56.931Z,11.90
2019-04-10T14:40:24.393Z,11.70
2019-04-10T14:42:51.816Z,11.70
2019-04-10T14:45:19.375Z,11.60
2019-04-10T14:47:47.637Z,11.60
2019-04-10T14:50:15.729Z,11.70
2019-04-10T14:52:43.311Z,11.70
2019-04-10T14:55:10.689Z,11.70
2019-04-10T14:57:39.105Z,11.80
2019-04-10T15:00:10.446Z,11.70
2019-04-10T15:02:39.641Z,11.80
2019-04-10T15:05:08.077Z,12.00
2019-04-10T15:07:35.945Z,12.00
2019-04-10T15:10:03.596Z,12.00
2019-04-10T15:12:30.747Z,12.10
2019-04-10T15:14:58.036Z,12.00
2019-04-10T15:17:25.304Z,12.00
2019-04-10T15:19:53.616Z,11.90
2019-04-10T15:22:21.220Z,12.00
2019-04-10T15:24:49.647Z,11.80
2019-04-10T15:27:17.343Z,11.80
2019-04-10T15:29:44.984Z,11.80
2019-04-10T15:32:12.773Z,11.70
2019-04-10T15:34:40.193Z,11.70
2019-04-10T15:37:07.425Z,11.70
2019-04-10T15:39:38.365Z,11.70
2019-04-10T15:42:03.767Z,11.50
2019-04-10T15:44:32.302Z,11.50
2019-04-10T15:47:12.606Z,11.40
2019-04-10T15:49:30.647Z,11.30
2019-04-10T15:51:57.852Z,11.30
2019-04-10T15:54:25.667Z,11.20
2019-04-10T15:56:54.085Z,11.20
2019-04-10T15:59:21.907Z,11.20
2019-04-10T16:01:49.393Z,11.20
2019-04-10T16:04:17.093Z,11.10
2019-04-10T16:06:45.223Z,11.10
2019-04-10T16:09:14.636Z,11.10
2019-04-10T16:11:48.396Z,11.00
2019-04-10T16:14:22.018Z,10.90
2019-04-10T16:17:06.829Z,10.90
2019-04-10T16:19:42.993Z,10.80
2019-04-10T16:22:45.257Z,10.80
2019-04-10T16:25:25.533Z,10.80
2019-04-10T16:27:53.588Z,10.70
2019-04-10T16:30:24.175Z,10.60
2019-04-10T16:32:52.316Z,10.50
2019-04-10T16:35:20.885Z,10.50
2019-04-10T16:37:49.429Z,10.40
2019-04-10T16:40:16.788Z,10.40
2019-04-10T16:42:44.035Z,10.30
2019-04-10T16:45:11.773Z,10.20
2019-04-10T16:47:38.979Z,10.10
2019-04-10T16:50:06.685Z,10.10
2019-04-10T16:52:34.002Z,10.00
2019-04-10T16:55:01.265Z,9.90
2019-04-10T16:57:29.031Z,9.90
2019-04-10T16:59:57.387Z,9.80
2019-04-10T17:02:24.838Z,9.60
2019-04-10T17:04:52.212Z,9.60
2019-04-10T17:07:21.057Z,9.50
2019-04-10T17:09:49.937Z,9.40
2019-04-10T17:12:17.817Z,9.30
2019-04-10T17:14:45.802Z,9.20
2019-04-10T17:17:13.183Z,9.10
2019-04-10T17:19:49.104Z,9.00
2019-04-10T17:22:09.483Z,8.90
2019-04-10T17:24:37.581Z,8.80
2019-04-10T17:27:06.246Z,8.60
2019-04-10T17:29:33.904Z,8.50
2019-04-10T17:32:02.564Z,8.40
2019-04-10T17:34:30.524Z,8.30
2019-04-10T17:36:59.075Z,8.20
2019-04-10T17:39:27.160Z,8.10
2019-04-10T17:41:55.631Z,8.00
2019-04-10T17:44:23.542Z,8.00
2019-04-10T17:46:51.256Z,7.90
2019-04-10T17:49:19.269Z,7.80
2019-04-10T17:51:46.913Z,7.60
2019-04-10T17:54:14.161Z,7.50
2019-04-10T17:56:41.440Z,7.40
2019-04-10T17:59:09.812Z,7.30
2019-04-10T18:01:37.328Z,7.20
2019-04-10T18:04:05.599Z,7.20
2019-04-10T18:06:33.325Z,7.10
2019-04-10T18:09:01.202Z,7.10
2019-04-10T18:11:28.629Z,7.00
2019-04-10T18:13:55.791Z,7.00
2019-04-10T18:16:23.144Z,6.90
2019-04-10T18:18:51.698Z,6.90
2019-04-10T18:21:19.021Z,6.90
2019-04-10T18:23:47.374Z,6.80
2019-04-10T18:26:14.731Z,6.80
2019-04-10T18:28:41.916Z,6.70
2019-04-10T18:31:10.259Z,6.70
2019-04-10T18:33:38.466Z,6.60
2019-04-10T18:36:07.038Z,6.60
2019-04-10T18:38:35.426Z,6.50
2019-04-10T18:41:05.748Z,6.40
2019-04-10T18:43:32.049Z,6.40
2019-04-10T18:46:07.874Z,6.30
2019-04-10T18:48:30.213Z,6.20
2019-04-10T18:50:57.723Z,6.20
2019-04-10T18:53:25.096Z,6.10
2019-04-10T18:55:52.382Z,6.10
2019-04-10T18:58:23.442Z,6.10
2019-04-10T19:01:11.448Z,6.00
2019-04-10T19:03:56.046Z,5.90
2019-04-10T19:06:24.631Z,5.90
2019-04-10T19:09:04.986Z,5.80
2019-04-10T19:11:25.970Z,5.80
2019-04-10T19:13:50.974Z,5.80
2019-04-10T19:16:19.571Z,5.70
2019-04-10T19:18:47.989Z,5.70
2019-04-10T19:21:15.614Z,5.70
2019-04-10T19:23:43.418Z,5.70
2019-04-10T19:26:13.792Z,5.70
2019-04-10T19:28:43.411Z,5.70
2019-04-10T19:31:18.948Z,5.60
2019-04-10T19:33:43.612Z,5.60
2019-04-10T19:36:11.885Z,5.50
2019-04-10T19:38:39.357Z,5.60
2019-04-10T19:41:14.122Z,5.50
2019-04-10T19:43:35.683Z,5.40
2019-04-10T19:46:04.090Z,5.40
2019-04-10T19:48:31.513Z,5.40
2019-04-10T19:50:59.645Z,5.30
2019-04-10T19:53:27.138Z,5.30
2019-04-10T19:55:54.341Z,5.20
2019-04-10T19:58:21.839Z,5.20
2019-04-10T20:00:49.227Z,5.20
2019-04-10T20:03:16.580Z,5.10
2019-04-10T20:05:43.953Z,5.10
2019-04-10T20:08:13.077Z,5.10
2019-04-10T20:10:41.502Z,5.00
2019-04-10T20:13:08.935Z,5.00
2019-04-10T20:15:36.359Z,5.00
2019-04-10T20:18:04.308Z,4.90
2019-04-10T20:20:31.360Z,4.90
2019-04-10T20:22:58.885Z,4.90
2019-04-10T20:25:26.256Z,4.90
2019-04-10T20:27:53.623Z,4.80
2019-04-10T20:30:23.635Z,4.80
2019-04-10T20:32:51.012Z,4.80
2019-04-10T20:35:18.292Z,4.80
2019-04-10T20:37:47.018Z,4.70
2019-04-10T20:40:14.304Z,4.60
2019-04-10T20:42:42.591Z,4.60
2019-04-10T20:45:11.315Z,4.60
2019-04-10T20:47:39.296Z,4.60
2019-04-10T20:50:07.800Z,4.60
2019-04-10T20:52:35.157Z,4.50
2019-04-10T20:55:05.738Z,4.50
2019-04-10T20:57:32.943Z,4.40
2019-04-10T21:00:01.667Z,4.30
2019-04-10T21:02:29.061Z,4.30
2019-04-10T21:05:05.221Z,4.30
2019-04-10T21:07:25.670Z,4.30
2019-04-10T21:09:54.513Z,4.20
2019-04-10T21:12:21.840Z,4.20
2019-04-10T21:14:49.275Z,4.20
2019-04-10T21:17:16.500Z,4.20
2019-04-10T21:19:45.375Z,4.10
2019-04-10T21:22:13.756Z,4.20
2019-04-10T21:24:41.294Z,4.10
2019-04-10T21:27:09.146Z,4.20
2019-04-10T21:30:07.883Z,4.10
2019-04-10T21:32:52.903Z,4.00
2019-04-10T21:35:25.049Z,4.00
2019-04-10T21:37:52.927Z,3.90
2019-04-10T21:40:20.713Z,3.90
2019-04-10T21:42:47.997Z,4.00
2019-04-10T21:45:15.933Z,3.80
2019-04-10T21:47:44.010Z,3.80
2019-04-10T21:50:13.111Z,3.70
2019-04-10T21:52:41.370Z,3.70
2019-04-10T21:55:08.660Z,3.60
2019-04-10T21:57:36.274Z,3.60
2019-04-10T22:00:04.694Z,3.50
2019-04-10T22:02:31.968Z,3.50
2019-04-10T22:04:59.638Z,3.60
2019-04-10T22:07:50.312Z,3.50
2019-04-10T22:10:37.951Z,3.50
2019-04-10T22:13:05.894Z,3.60
2019-04-10T22:15:39.286Z,3.40
2019-04-10T22:18:07.289Z,3.30
2019-04-10T22:20:34.679Z,3.30
2019-04-10T22:23:02.131Z,3.20
2019-04-10T22:25:29.816Z,3.20
2019-04-10T22:27:58.347Z,3.20
2019-04-10T22:30:25.833Z,3.20
2019-04-10T22:32:53.434Z,3.10
2019-04-10T22:35:21.604Z,3.10
2019-04-10T22:37:48.780Z,3.10
2019-04-10T22:40:17.273Z,3.00
2019-04-10T22:42:47.034Z,3.10
2019-04-10T22:45:26.179Z,3.00
2019-04-10T22:47:54.585Z,3.00
2019-04-10T22:50:22.385Z,2.90
2019-04-10T22:52:50.754Z,2.90
2019-04-10T22:55:17.948Z,2.90
2019-04-10T22:57:46.329Z,2.80
2019-04-10T23:00:20.074Z,2.80
2019-04-10T23:02:48.489Z,2.70
2019-04-10T23:05:16.277Z,2.70
2019-04-10T23:07:43.517Z,2.70
2019-04-10T23:10:13.214Z,2.60
2019-04-10T23:12:52.246Z,2.50
2019-04-10T23:15:11.331Z,2.50
2019-04-10T23:17:39.005Z,2.40
2019-04-10T23:20:06.797Z,2.30
2019-04-10T23:22:34.044Z,2.30
2019-04-10T23:25:02.469Z,2.20
2019-04-10T23:27:30.167Z,2.10
2019-04-10T23:29:57.270Z,2.10
2019-04-10T23:32:24.419Z,2.10
2019-04-10T23:34:52.485Z,2.00
2019-04-10T23:37:20.541Z,2.00
2019-04-10T23:39:48.214Z,1.90
2019-04-10T23:42:15.445Z,1.90
2019-04-10T23:44:42.939Z,1.90
2019-04-10T23:47:10.272Z,1.80
2019-04-10T23:49:37.439Z,1.80
2019-04-10T23:52:04.539Z,1.70
2019-04-10T23:54:31.568Z,1.60
2019-04-10T23:56:58.891Z,1.60
2019-04-10T23:59:26.718Z,1.60
